sensor_id;sensor_type;location;lat;lon;timestamp;P1;durP1;ratioP1;P2;durP2;ratioP2
16994;SDS011;8614;48.522;9.206;2024-01-11T00:01:33;54.17;;;36.80;;
16994;SDS011;8614;48.522;9.206;2024-01-11T00:04:02;53.63;;;38.17;;
16994;SDS011;8614;48.522;9.206;2024-01-11T00:06:29;50.03;;;38.53;;
16994;SDS011;8614;48.522;9.206;2024-01-11T00:08:55;55.07;;;38.40;;
16994;SDS011;8614;48.522;9.206;2024-01-11T00:11:22;54.00;;;39.43;;
16994;SDS011;8614;48.522;9.206;2024-01-11T00:13:49;51.40;;;37.93;;
16994;SDS011;8614;48.522;9.206;2024-01-11T00:16:16;50.63;;;37.07;;
16994;SDS011;8614;48.522;9.206;2024-01-11T00:18:42;51.23;;;37.23;;
16994;SDS011;8614;48.522;9.206;2024-01-11T00:21:11;49.87;;;37.80;;
16994;SDS011;8614;48.522;9.206;2024-01-11T00:23:38;51.57;;;36.43;;
16994;SDS011;8614;48.522;9.206;2024-01-11T00:26:05;56.03;;;38.37;;
16994;SDS011;8614;48.522;9.206;2024-01-11T00:28:31;55.07;;;37.17;;
16994;SDS011;8614;48.522;9.206;2024-01-11T00:30:58;58.07;;;40.37;;
16994;SDS011;8614;48.522;9.206;2024-01-11T00:33:25;55.00;;;38.37;;
16994;SDS011;8614;48.522;9.206;2024-01-11T00:35:51;55.17;;;38.03;;
16994;SDS011;8614;48.522;9.206;2024-01-11T00:38:20;53.93;;;37.97;;
16994;SDS011;8614;48.522;9.206;2024-01-11T00:40:46;56.43;;;39.90;;
16994;SDS011;8614;48.522;9.206;2024-01-11T00:43:14;50.80;;;38.40;;
16994;SDS011;8614;48.522;9.206;2024-01-11T00:45:40;49.37;;;35.63;;
16994;SDS011;8614;48.522;9.206;2024-01-11T00:48:07;57.63;;;40.67;;
16994;SDS011;8614;48.522;9.206;2024-01-11T00:50:34;55.33;;;40.13;;
16994;SDS011;8614;48.522;9.206;2024-01-11T00:53:01;55.37;;;38.63;;
16994;SDS011;8614;48.522;9.206;2024-01-11T00:55:29;53.93;;;38.53;;
16994;SDS011;8614;48.522;9.206;2024-01-11T00:57:56;54.83;;;39.27;;
16994;SDS011;8614;48.522;9.206;2024-01-11T01:00:23;55.70;;;40.17;;
16994;SDS011;8614;48.522;9.206;2024-01-11T01:02:49;62.80;;;40.57;;
16994;SDS011;8614;48.522;9.206;2024-01-11T01:05:16;53.10;;;37.43;;
16994;SDS011;8614;48.522;9.206;2024-01-11T01:07:43;62.50;;;39.30;;
16994;SDS011;8614;48.522;9.206;2024-01-11T01:10:11;53.47;;;37.50;;
16994;SDS011;8614;48.522;9.206;2024-01-11T01:12:39;53.83;;;39.27;;
16994;SDS011;8614;48.522;9.206;2024-01-11T01:15:06;53.23;;;39.33;;
16994;SDS011;8614;48.522;9.206;2024-01-11T01:17:33;55.60;;;38.93;;
16994;SDS011;8614;48.522;9.206;2024-01-11T01:20:00;57.90;;;39.77;;
16994;SDS011;8614;48.522;9.206;2024-01-11T01:22:28;59.27;;;39.33;;
16994;SDS011;8614;48.522;9.206;2024-01-11T01:24:55;54.87;;;37.57;;
16994;SDS011;8614;48.522;9.206;2024-01-11T01:27:21;53.83;;;38.93;;
16994;SDS011;8614;48.522;9.206;2024-01-11T01:29:50;54.63;;;38.50;;
16994;SDS011;8614;48.522;9.206;2024-01-11T01:32:16;63.23;;;41.93;;
16994;SDS011;8614;48.522;9.206;2024-01-11T01:34:43;56.67;;;39.90;;
16994;SDS011;8614;48.522;9.206;2024-01-11T01:37:11;53.43;;;38.60;;
16994;SDS011;8614;48.522;9.206;2024-01-11T01:39:37;54.00;;;38.90;;
16994;SDS011;8614;48.522;9.206;2024-01-11T01:42:04;58.23;;;38.47;;
16994;SDS011;8614;48.522;9.206;2024-01-11T01:44:31;54.33;;;38.20;;
16994;SDS011;8614;48.522;9.206;2024-01-11T01:47:00;57.67;;;39.23;;
16994;SDS011;8614;48.522;9.206;2024-01-11T01:49:27;56.13;;;39.10;;
16994;SDS011;8614;48.522;9.206;2024-01-11T01:51:54;52.43;;;37.70;;
16994;SDS011;8614;48.522;9.206;2024-01-11T01:54:21;57.60;;;38.67;;
16994;SDS011;8614;48.522;9.206;2024-01-11T01:56:49;57.87;;;39.10;;
16994;SDS011;8614;48.522;9.206;2024-01-11T01:59:18;61.50;;;39.73;;
16994;SDS011;8614;48.522;9.206;2024-01-11T02:01:46;56.67;;;39.60;;
16994;SDS011;8614;48.522;9.206;2024-01-11T02:04:15;52.07;;;38.80;;
16994;SDS011;8614;48.522;9.206;2024-01-11T02:06:43;55.00;;;37.57;;
16994;SDS011;8614;48.522;9.206;2024-01-11T02:09:12;53.13;;;38.57;;
16994;SDS011;8614;48.522;9.206;2024-01-11T02:11:40;57.03;;;39.57;;
16994;SDS011;8614;48.522;9.206;2024-01-11T02:14:07;54.23;;;39.97;;
16994;SDS011;8614;48.522;9.206;2024-01-11T02:16:34;53.47;;;37.80;;
16994;SDS011;8614;48.522;9.206;2024-01-11T02:19:01;54.37;;;38.20;;
16994;SDS011;8614;48.522;9.206;2024-01-11T02:21:30;53.23;;;39.20;;
16994;SDS011;8614;48.522;9.206;2024-01-11T02:24:04;52.63;;;38.97;;
16994;SDS011;8614;48.522;9.206;2024-01-11T02:26:32;53.20;;;38.23;;
16994;SDS011;8614;48.522;9.206;2024-01-11T02:28:59;56.47;;;39.67;;
16994;SDS011;8614;48.522;9.206;2024-01-11T02:31:26;48.93;;;38.47;;
16994;SDS011;8614;48.522;9.206;2024-01-11T02:33:53;50.00;;;38.00;;
16994;SDS011;8614;48.522;9.206;2024-01-11T02:36:21;56.43;;;39.57;;
16994;SDS011;8614;48.522;9.206;2024-01-11T02:38:48;57.23;;;39.37;;
16994;SDS011;8614;48.522;9.206;2024-01-11T02:41:18;53.53;;;38.37;;
16994;SDS011;8614;48.522;9.206;2024-01-11T02:43:46;53.10;;;38.33;;
16994;SDS011;8614;48.522;9.206;2024-01-11T02:46:14;52.97;;;38.30;;
16994;SDS011;8614;48.522;9.206;2024-01-11T02:48:41;55.70;;;38.57;;
16994;SDS011;8614;48.522;9.206;2024-01-11T02:51:08;57.53;;;39.40;;
16994;SDS011;8614;48.522;9.206;2024-01-11T02:53:35;58.47;;;38.57;;
16994;SDS011;8614;48.522;9.206;2024-01-11T02:56:02;55.03;;;38.60;;
16994;SDS011;8614;48.522;9.206;2024-01-11T02:58:30;59.97;;;41.10;;
16994;SDS011;8614;48.522;9.206;2024-01-11T03:00:57;57.30;;;40.07;;
16994;SDS011;8614;48.522;9.206;2024-01-11T03:03:24;51.43;;;39.33;;
16994;SDS011;8614;48.522;9.206;2024-01-11T03:05:50;57.93;;;39.60;;
16994;SDS011;8614;48.522;9.206;2024-01-11T03:08:18;56.53;;;38.57;;
16994;SDS011;8614;48.522;9.206;2024-01-11T03:10:44;53.67;;;38.50;;
16994;SDS011;8614;48.522;9.206;2024-01-11T03:13:11;59.30;;;40.33;;
16994;SDS011;8614;48.522;9.206;2024-01-11T03:15:40;56.57;;;39.00;;
16994;SDS011;8614;48.522;9.206;2024-01-11T03:18:07;53.37;;;37.77;;
16994;SDS011;8614;48.522;9.206;2024-01-11T03:20:33;50.50;;;36.67;;
16994;SDS011;8614;48.522;9.206;2024-01-11T03:23:00;60.20;;;37.50;;
16994;SDS011;8614;48.522;9.206;2024-01-11T03:25:28;55.97;;;37.07;;
16994;SDS011;8614;48.522;9.206;2024-01-11T03:27:55;63.97;;;38.47;;
16994;SDS011;8614;48.522;9.206;2024-01-11T03:30:23;44.40;;;35.07;;
16994;SDS011;8614;48.522;9.206;2024-01-11T03:32:52;56.53;;;38.90;;
16994;SDS011;8614;48.522;9.206;2024-01-11T03:35:18;52.43;;;38.60;;
16994;SDS011;8614;48.522;9.206;2024-01-11T03:37:46;54.67;;;36.73;;
16994;SDS011;8614;48.522;9.206;2024-01-11T03:40:13;52.40;;;36.93;;
16994;SDS011;8614;48.522;9.206;2024-01-11T03:42:40;51.57;;;35.90;;
16994;SDS011;8614;48.522;9.206;2024-01-11T03:45:08;50.83;;;36.13;;
16994;SDS011;8614;48.522;9.206;2024-01-11T03:47:35;51.57;;;35.30;;
16994;SDS011;8614;48.522;9.206;2024-01-11T03:50:04;49.27;;;36.97;;
16994;SDS011;8614;48.522;9.206;2024-01-11T03:52:31;50.33;;;37.37;;
16994;SDS011;8614;48.522;9.206;2024-01-11T03:54:58;47.40;;;35.97;;
16994;SDS011;8614;48.522;9.206;2024-01-11T03:57:24;48.30;;;35.17;;
16994;SDS011;8614;48.522;9.206;2024-01-11T03:59:51;51.07;;;36.83;;
16994;SDS011;8614;48.522;9.206;2024-01-11T04:02:18;52.70;;;36.00;;
16994;SDS011;8614;48.522;9.206;2024-01-11T04:04:45;58.47;;;35.43;;
16994;SDS011;8614;48.522;9.206;2024-01-11T04:07:14;50.27;;;34.43;;
16994;SDS011;8614;48.522;9.206;2024-01-11T04:09:42;49.53;;;35.00;;
16994;SDS011;8614;48.522;9.206;2024-01-11T04:12:08;48.60;;;36.77;;
16994;SDS011;8614;48.522;9.206;2024-01-11T04:14:38;47.10;;;35.20;;
16994;SDS011;8614;48.522;9.206;2024-01-11T04:17:05;51.43;;;35.37;;
16994;SDS011;8614;48.522;9.206;2024-01-11T04:19:32;46.10;;;36.07;;
16994;SDS011;8614;48.522;9.206;2024-01-11T04:21:59;44.33;;;32.80;;
16994;SDS011;8614;48.522;9.206;2024-01-11T04:24:27;50.73;;;36.13;;
16994;SDS011;8614;48.522;9.206;2024-01-11T04:26:54;49.03;;;32.80;;
16994;SDS011;8614;48.522;9.206;2024-01-11T04:29:21;48.10;;;36.03;;
16994;SDS011;8614;48.522;9.206;2024-01-11T04:31:48;45.43;;;33.37;;
16994;SDS011;8614;48.522;9.206;2024-01-11T04:34:14;44.13;;;34.07;;
16994;SDS011;8614;48.522;9.206;2024-01-11T04:36:41;47.40;;;34.97;;
16994;SDS011;8614;48.522;9.206;2024-01-11T04:39:08;47.30;;;33.40;;
16994;SDS011;8614;48.522;9.206;2024-01-11T04:41:36;48.93;;;34.87;;
16994;SDS011;8614;48.522;9.206;2024-01-11T04:44:04;49.50;;;34.83;;
16994;SDS011;8614;48.522;9.206;2024-01-11T04:46:30;48.43;;;34.33;;
16994;SDS011;8614;48.522;9.206;2024-01-11T04:48:57;50.70;;;34.27;;
16994;SDS011;8614;48.522;9.206;2024-01-11T04:51:24;48.70;;;35.10;;
16994;SDS011;8614;48.522;9.206;2024-01-11T04:53:51;51.97;;;34.00;;
16994;SDS011;8614;48.522;9.206;2024-01-11T04:56:18;49.33;;;36.33;;
16994;SDS011;8614;48.522;9.206;2024-01-11T04:58:46;50.33;;;35.77;;
16994;SDS011;8614;48.522;9.206;2024-01-11T05:01:13;50.63;;;35.73;;
16994;SDS011;8614;48.522;9.206;2024-01-11T05:03:41;46.60;;;34.37;;
16994;SDS011;8614;48.522;9.206;2024-01-11T05:06:08;48.93;;;34.47;;
16994;SDS011;8614;48.522;9.206;2024-01-11T05:08:40;47.37;;;33.20;;
16994;SDS011;8614;48.522;9.206;2024-01-11T05:11:07;46.53;;;34.57;;
16994;SDS011;8614;48.522;9.206;2024-01-11T05:13:34;44.73;;;34.17;;
16994;SDS011;8614;48.522;9.206;2024-01-11T05:16:02;49.43;;;33.90;;
16994;SDS011;8614;48.522;9.206;2024-01-11T05:18:29;48.53;;;34.63;;
16994;SDS011;8614;48.522;9.206;2024-01-11T05:20:56;45.63;;;35.10;;
16994;SDS011;8614;48.522;9.206;2024-01-11T05:23:22;46.50;;;33.93;;
16994;SDS011;8614;48.522;9.206;2024-01-11T05:25:49;43.50;;;32.00;;
16994;SDS011;8614;48.522;9.206;2024-01-11T05:28:16;40.73;;;31.67;;
16994;SDS011;8614;48.522;9.206;2024-01-11T05:30:43;40.47;;;33.00;;
16994;SDS011;8614;48.522;9.206;2024-01-11T05:33:11;46.17;;;33.20;;
16994;SDS011;8614;48.522;9.206;2024-01-11T05:35:38;45.03;;;33.33;;
16994;SDS011;8614;48.522;9.206;2024-01-11T05:38:05;45.10;;;33.67;;
16994;SDS011;8614;48.522;9.206;2024-01-11T05:40:31;45.03;;;34.70;;
16994;SDS011;8614;48.522;9.206;2024-01-11T05:42:58;50.13;;;34.00;;
16994;SDS011;8614;48.522;9.206;2024-01-11T05:45:25;47.60;;;34.40;;
16994;SDS011;8614;48.522;9.206;2024-01-11T05:47:52;48.17;;;35.67;;
16994;SDS011;8614;48.522;9.206;2024-01-11T05:50:20;43.77;;;33.17;;
16994;SDS011;8614;48.522;9.206;2024-01-11T05:52:46;46.20;;;34.17;;
16994;SDS011;8614;48.522;9.206;2024-01-11T05:55:13;46.67;;;34.80;;
16994;SDS011;8614;48.522;9.206;2024-01-11T05:57:40;46.63;;;34.87;;
16994;SDS011;8614;48.522;9.206;2024-01-11T06:00:07;46.37;;;34.83;;
16994;SDS011;8614;48.522;9.206;2024-01-11T06:02:35;44.50;;;33.33;;
16994;SDS011;8614;48.522;9.206;2024-01-11T06:05:02;46.53;;;32.70;;
16994;SDS011;8614;48.522;9.206;2024-01-11T06:07:31;48.10;;;33.90;;
16994;SDS011;8614;48.522;9.206;2024-01-11T06:09:58;43.47;;;33.50;;
16994;SDS011;8614;48.522;9.206;2024-01-11T06:12:26;43.83;;;34.50;;
16994;SDS011;8614;48.522;9.206;2024-01-11T06:14:53;48.63;;;36.20;;
16994;SDS011;8614;48.522;9.206;2024-01-11T06:17:19;50.63;;;34.63;;
16994;SDS011;8614;48.522;9.206;2024-01-11T06:19:46;48.63;;;35.80;;
16994;SDS011;8614;48.522;9.206;2024-01-11T06:22:13;56.33;;;35.77;;
16994;SDS011;8614;48.522;9.206;2024-01-11T06:24:41;49.33;;;34.87;;
16994;SDS011;8614;48.522;9.206;2024-01-11T06:27:08;42.03;;;32.03;;
16994;SDS011;8614;48.522;9.206;2024-01-11T06:29:35;51.13;;;34.77;;
16994;SDS011;8614;48.522;9.206;2024-01-11T06:32:01;48.20;;;34.60;;
16994;SDS011;8614;48.522;9.206;2024-01-11T06:34:28;48.90;;;35.43;;
16994;SDS011;8614;48.522;9.206;2024-01-11T06:36:55;46.23;;;34.17;;
16994;SDS011;8614;48.522;9.206;2024-01-11T06:39:22;45.53;;;34.17;;
16994;SDS011;8614;48.522;9.206;2024-01-11T06:41:50;45.87;;;33.37;;
16994;SDS011;8614;48.522;9.206;2024-01-11T06:44:17;41.80;;;32.77;;
16994;SDS011;8614;48.522;9.206;2024-01-11T06:46:44;47.17;;;32.80;;
16994;SDS011;8614;48.522;9.206;2024-01-11T06:49:10;47.07;;;33.90;;
16994;SDS011;8614;48.522;9.206;2024-01-11T06:51:37;52.90;;;35.67;;
16994;SDS011;8614;48.522;9.206;2024-01-11T06:54:04;42.80;;;31.87;;
16994;SDS011;8614;48.522;9.206;2024-01-11T06:56:31;47.20;;;34.27;;
16994;SDS011;8614;48.522;9.206;2024-01-11T06:58:59;48.30;;;34.57;;
16994;SDS011;8614;48.522;9.206;2024-01-11T07:01:26;51.77;;;35.77;;
16994;SDS011;8614;48.522;9.206;2024-01-11T07:03:53;48.00;;;33.93;;
16994;SDS011;8614;48.522;9.206;2024-01-11T07:06:20;47.30;;;33.27;;
16994;SDS011;8614;48.522;9.206;2024-01-11T07:08:47;46.53;;;34.30;;
16994;SDS011;8614;48.522;9.206;2024-01-11T07:11:13;47.93;;;35.43;;
16994;SDS011;8614;48.522;9.206;2024-01-11T07:13:41;47.20;;;34.97;;
16994;SDS011;8614;48.522;9.206;2024-01-11T07:16:09;47.73;;;35.07;;
16994;SDS011;8614;48.522;9.206;2024-01-11T07:18:36;51.20;;;33.53;;
16994;SDS011;8614;48.522;9.206;2024-01-11T07:21:03;48.60;;;34.80;;
16994;SDS011;8614;48.522;9.206;2024-01-11T07:23:30;50.57;;;33.60;;
16994;SDS011;8614;48.522;9.206;2024-01-11T07:25:57;45.57;;;30.83;;
16994;SDS011;8614;48.522;9.206;2024-01-11T07:28:24;45.73;;;33.90;;
16994;SDS011;8614;48.522;9.206;2024-01-11T07:30:51;41.13;;;31.93;;
16994;SDS011;8614;48.522;9.206;2024-01-11T07:33:20;51.97;;;33.90;;
16994;SDS011;8614;48.522;9.206;2024-01-11T07:35:47;51.00;;;36.30;;
16994;SDS011;8614;48.522;9.206;2024-01-11T07:38:13;46.97;;;33.10;;
16994;SDS011;8614;48.522;9.206;2024-01-11T07:40:40;44.93;;;32.40;;
16994;SDS011;8614;48.522;9.206;2024-01-11T07:43:07;49.90;;;34.40;;
16994;SDS011;8614;48.522;9.206;2024-01-11T07:45:34;42.30;;;31.87;;
16994;SDS011;8614;48.522;9.206;2024-01-11T07:48:01;49.97;;;33.50;;
16994;SDS011;8614;48.522;9.206;2024-01-11T07:50:31;47.63;;;32.90;;
16994;SDS011;8614;48.522;9.206;2024-01-11T07:52:58;47.20;;;32.87;;
16994;SDS011;8614;48.522;9.206;2024-01-11T07:55:25;50.20;;;36.37;;
16994;SDS011;8614;48.522;9.206;2024-01-11T07:57:51;52.57;;;37.80;;
16994;SDS011;8614;48.522;9.206;2024-01-11T08:00:18;54.50;;;38.23;;
16994;SDS011;8614;48.522;9.206;2024-01-11T08:02:45;55.80;;;36.93;;
16994;SDS011;8614;48.522;9.206;2024-01-11T08:05:12;57.20;;;37.67;;
16994;SDS011;8614;48.522;9.206;2024-01-11T08:07:40;50.07;;;35.83;;
16994;SDS011;8614;48.522;9.206;2024-01-11T08:10:08;47.70;;;35.57;;
16994;SDS011;8614;48.522;9.206;2024-01-11T08:12:35;45.70;;;32.80;;
16994;SDS011;8614;48.522;9.206;2024-01-11T08:15:02;43.03;;;31.93;;
16994;SDS011;8614;48.522;9.206;2024-01-11T08:17:29;43.03;;;31.53;;
16994;SDS011;8614;48.522;9.206;2024-01-11T08:19:56;46.53;;;33.00;;
16994;SDS011;8614;48.522;9.206;2024-01-11T08:22:24;49.73;;;33.40;;
16994;SDS011;8614;48.522;9.206;2024-01-11T08:24:52;45.77;;;33.97;;
16994;SDS011;8614;48.522;9.206;2024-01-11T08:27:18;43.33;;;33.07;;
16994;SDS011;8614;48.522;9.206;2024-01-11T08:29:45;45.40;;;32.43;;
16994;SDS011;8614;48.522;9.206;2024-01-11T08:32:12;46.53;;;34.53;;
16994;SDS011;8614;48.522;9.206;2024-01-11T08:34:39;50.27;;;35.17;;
16994;SDS011;8614;48.522;9.206;2024-01-11T08:37:06;46.13;;;32.57;;
16994;SDS011;8614;48.522;9.206;2024-01-11T08:39:33;45.87;;;33.03;;
16994;SDS011;8614;48.522;9.206;2024-01-11T08:42:01;47.53;;;33.87;;
16994;SDS011;8614;48.522;9.206;2024-01-11T08:44:29;41.03;;;32.53;;
16994;SDS011;8614;48.522;9.206;2024-01-11T08:46:56;49.00;;;35.00;;
16994;SDS011;8614;48.522;9.206;2024-01-11T08:49:24;50.53;;;34.40;;
16994;SDS011;8614;48.522;9.206;2024-01-11T08:51:51;49.17;;;34.90;;
16994;SDS011;8614;48.522;9.206;2024-01-11T08:54:18;46.07;;;33.20;;
16994;SDS011;8614;48.522;9.206;2024-01-11T08:56:46;43.27;;;32.70;;
16994;SDS011;8614;48.522;9.206;2024-01-11T08:59:14;43.67;;;33.67;;
16994;SDS011;8614;48.522;9.206;2024-01-11T09:01:41;45.97;;;34.73;;
16994;SDS011;8614;48.522;9.206;2024-01-11T09:04:08;50.37;;;34.23;;
16994;SDS011;8614;48.522;9.206;2024-01-11T09:06:35;52.37;;;36.03;;
16994;SDS011;8614;48.522;9.206;2024-01-11T09:09:01;49.40;;;34.90;;
16994;SDS011;8614;48.522;9.206;2024-01-11T09:11:28;49.70;;;35.93;;
16994;SDS011;8614;48.522;9.206;2024-01-11T09:13:55;45.60;;;34.40;;
16994;SDS011;8614;48.522;9.206;2024-01-11T09:16:24;49.80;;;35.67;;
16994;SDS011;8614;48.522;9.206;2024-01-11T09:18:51;51.27;;;36.13;;
16994;SDS011;8614;48.522;9.206;2024-01-11T09:21:17;46.70;;;35.10;;
16994;SDS011;8614;48.522;9.206;2024-01-11T09:23:44;45.33;;;34.27;;
16994;SDS011;8614;48.522;9.206;2024-01-11T09:26:12;46.67;;;34.57;;
16994;SDS011;8614;48.522;9.206;2024-01-11T09:28:39;51.13;;;35.97;;
16994;SDS011;8614;48.522;9.206;2024-01-11T09:31:06;51.30;;;36.67;;
16994;SDS011;8614;48.522;9.206;2024-01-11T09:33:34;49.00;;;35.83;;
16994;SDS011;8614;48.522;9.206;2024-01-11T09:36:01;47.87;;;36.20;;
16994;SDS011;8614;48.522;9.206;2024-01-11T09:38:28;46.97;;;35.10;;
16994;SDS011;8614;48.522;9.206;2024-01-11T09:40:57;49.60;;;36.60;;
16994;SDS011;8614;48.522;9.206;2024-01-11T09:43:31;50.13;;;36.13;;
16994;SDS011;8614;48.522;9.206;2024-01-11T09:46:00;54.50;;;36.17;;
16994;SDS011;8614;48.522;9.206;2024-01-11T09:48:31;54.27;;;35.90;;
16994;SDS011;8614;48.522;9.206;2024-01-11T09:51:01;48.37;;;34.97;;
16994;SDS011;8614;48.522;9.206;2024-01-11T09:53:28;56.03;;;39.10;;
16994;SDS011;8614;48.522;9.206;2024-01-11T09:55:56;48.27;;;35.37;;
16994;SDS011;8614;48.522;9.206;2024-01-11T09:58:24;53.83;;;37.03;;
16994;SDS011;8614;48.522;9.206;2024-01-11T10:00:51;48.80;;;36.17;;
16994;SDS011;8614;48.522;9.206;2024-01-11T10:03:21;50.87;;;36.23;;
16994;SDS011;8614;48.522;9.206;2024-01-11T10:05:50;49.73;;;34.53;;
16994;SDS011;8614;48.522;9.206;2024-01-11T10:08:23;48.63;;;34.77;;
16994;SDS011;8614;48.522;9.206;2024-01-11T10:10:51;54.53;;;37.83;;
16994;SDS011;8614;48.522;9.206;2024-01-11T10:13:18;55.97;;;36.80;;
16994;SDS011;8614;48.522;9.206;2024-01-11T10:15:45;47.77;;;35.87;;
16994;SDS011;8614;48.522;9.206;2024-01-11T10:18:12;47.73;;;36.17;;
16994;SDS011;8614;48.522;9.206;2024-01-11T10:20:39;50.93;;;34.90;;
16994;SDS011;8614;48.522;9.206;2024-01-11T10:23:07;52.90;;;38.50;;
16994;SDS011;8614;48.522;9.206;2024-01-11T10:25:35;49.77;;;38.07;;
16994;SDS011;8614;48.522;9.206;2024-01-11T10:28:01;54.73;;;39.63;;
16994;SDS011;8614;48.522;9.206;2024-01-11T10:30:28;54.57;;;38.30;;
16994;SDS011;8614;48.522;9.206;2024-01-11T10:32:57;54.57;;;39.57;;
16994;SDS011;8614;48.522;9.206;2024-01-11T10:35:24;60.00;;;41.23;;
16994;SDS011;8614;48.522;9.206;2024-01-11T10:37:51;56.60;;;39.50;;
16994;SDS011;8614;48.522;9.206;2024-01-11T10:40:21;51.50;;;38.50;;
16994;SDS011;8614;48.522;9.206;2024-01-11T10:42:50;53.40;;;37.93;;
16994;SDS011;8614;48.522;9.206;2024-01-11T10:45:18;59.13;;;39.97;;
16994;SDS011;8614;48.522;9.206;2024-01-11T10:47:49;54.30;;;40.13;;
16994;SDS011;8614;48.522;9.206;2024-01-11T10:50:19;53.20;;;37.43;;
16994;SDS011;8614;48.522;9.206;2024-01-11T10:52:53;53.83;;;39.90;;
16994;SDS011;8614;48.522;9.206;2024-01-11T10:55:29;59.80;;;41.40;;
16994;SDS011;8614;48.522;9.206;2024-01-11T10:57:58;55.50;;;39.77;;
16994;SDS011;8614;48.522;9.206;2024-01-11T11:00:26;55.77;;;39.47;;
16994;SDS011;8614;48.522;9.206;2024-01-11T11:02:54;56.13;;;38.93;;
16994;SDS011;8614;48.522;9.206;2024-01-11T11:05:21;57.93;;;41.87;;
16994;SDS011;8614;48.522;9.206;2024-01-11T11:07:49;52.87;;;39.50;;
16994;SDS011;8614;48.522;9.206;2024-01-11T11:10:17;50.97;;;38.43;;
16994;SDS011;8614;48.522;9.206;2024-01-11T11:12:46;58.23;;;41.30;;
16994;SDS011;8614;48.522;9.206;2024-01-11T11:15:15;58.57;;;39.57;;
16994;SDS011;8614;48.522;9.206;2024-01-11T11:17:42;62.77;;;41.87;;
16994;SDS011;8614;48.522;9.206;2024-01-11T11:20:10;53.50;;;39.10;;
16994;SDS011;8614;48.522;9.206;2024-01-11T11:22:39;59.90;;;41.87;;
16994;SDS011;8614;48.522;9.206;2024-01-11T11:25:08;55.87;;;39.60;;
16994;SDS011;8614;48.522;9.206;2024-01-11T11:27:35;54.23;;;40.17;;
16994;SDS011;8614;48.522;9.206;2024-01-11T11:30:04;51.13;;;39.00;;
16994;SDS011;8614;48.522;9.206;2024-01-11T11:32:35;59.70;;;41.67;;
16994;SDS011;8614;48.522;9.206;2024-01-11T11:35:02;55.57;;;40.50;;
16994;SDS011;8614;48.522;9.206;2024-01-11T11:37:30;54.53;;;41.10;;
16994;SDS011;8614;48.522;9.206;2024-01-11T11:39:57;57.30;;;41.57;;
16994;SDS011;8614;48.522;9.206;2024-01-11T11:42:25;60.73;;;41.50;;
16994;SDS011;8614;48.522;9.206;2024-01-11T11:44:53;54.77;;;40.70;;
16994;SDS011;8614;48.522;9.206;2024-01-11T11:47:24;52.57;;;39.10;;
16994;SDS011;8614;48.522;9.206;2024-01-11T11:50:02;56.03;;;40.57;;
16994;SDS011;8614;48.522;9.206;2024-01-11T11:52:31;56.50;;;42.53;;
16994;SDS011;8614;48.522;9.206;2024-01-11T11:54:59;53.30;;;40.70;;
16994;SDS011;8614;48.522;9.206;2024-01-11T11:57:28;55.50;;;39.90;;
16994;SDS011;8614;48.522;9.206;2024-01-11T11:59:55;52.80;;;39.23;;
16994;SDS011;8614;48.522;9.206;2024-01-11T12:02:25;55.90;;;38.73;;
16994;SDS011;8614;48.522;9.206;2024-01-11T12:04:52;52.50;;;38.60;;
16994;SDS011;8614;48.522;9.206;2024-01-11T12:07:19;52.10;;;38.90;;
16994;SDS011;8614;48.522;9.206;2024-01-11T12:09:48;53.90;;;39.30;;
16994;SDS011;8614;48.522;9.206;2024-01-11T12:12:15;50.03;;;38.77;;
16994;SDS011;8614;48.522;9.206;2024-01-11T12:14:42;55.37;;;40.40;;
16994;SDS011;8614;48.522;9.206;2024-01-11T12:17:11;54.73;;;40.17;;
16994;SDS011;8614;48.522;9.206;2024-01-11T12:19:39;54.80;;;40.47;;
16994;SDS011;8614;48.522;9.206;2024-01-11T12:22:06;55.37;;;41.53;;
16994;SDS011;8614;48.522;9.206;2024-01-11T12:24:33;56.60;;;41.73;;
16994;SDS011;8614;48.522;9.206;2024-01-11T12:27:00;55.80;;;40.27;;
16994;SDS011;8614;48.522;9.206;2024-01-11T12:29:28;50.60;;;39.83;;
16994;SDS011;8614;48.522;9.206;2024-01-11T12:31:56;54.97;;;40.97;;
16994;SDS011;8614;48.522;9.206;2024-01-11T12:34:23;52.80;;;38.97;;
16994;SDS011;8614;48.522;9.206;2024-01-11T12:36:52;51.73;;;39.03;;
16994;SDS011;8614;48.522;9.206;2024-01-11T12:39:20;56.27;;;40.07;;
16994;SDS011;8614;48.522;9.206;2024-01-11T12:41:48;57.07;;;41.83;;
16994;SDS011;8614;48.522;9.206;2024-01-11T12:44:17;51.93;;;39.47;;
16994;SDS011;8614;48.522;9.206;2024-01-11T12:46:44;57.07;;;40.10;;
16994;SDS011;8614;48.522;9.206;2024-01-11T12:49:13;57.07;;;42.13;;
16994;SDS011;8614;48.522;9.206;2024-01-11T12:51:40;59.43;;;43.27;;
16994;SDS011;8614;48.522;9.206;2024-01-11T12:54:10;55.77;;;42.50;;
16994;SDS011;8614;48.522;9.206;2024-01-11T12:56:42;62.13;;;43.53;;
16994;SDS011;8614;48.522;9.206;2024-01-11T12:59:09;55.90;;;41.23;;
16994;SDS011;8614;48.522;9.206;2024-01-11T13:01:37;56.07;;;41.83;;
16994;SDS011;8614;48.522;9.206;2024-01-11T13:04:05;58.23;;;41.33;;
16994;SDS011;8614;48.522;9.206;2024-01-11T13:06:34;60.03;;;43.23;;
16994;SDS011;8614;48.522;9.206;2024-01-11T13:09:01;63.80;;;44.83;;
16994;SDS011;8614;48.522;9.206;2024-01-11T13:11:30;56.73;;;43.37;;
16994;SDS011;8614;48.522;9.206;2024-01-11T13:13:57;87.37;;;44.37;;
16994;SDS011;8614;48.522;9.206;2024-01-11T13:16:29;69.43;;;44.97;;
16994;SDS011;8614;48.522;9.206;2024-01-11T13:18:55;58.03;;;40.10;;
16994;SDS011;8614;48.522;9.206;2024-01-11T13:21:22;65.30;;;41.70;;
16994;SDS011;8614;48.522;9.206;2024-01-11T13:23:49;57.73;;;41.63;;
16994;SDS011;8614;48.522;9.206;2024-01-11T13:26:16;56.60;;;40.27;;
16994;SDS011;8614;48.522;9.206;2024-01-11T13:28:44;55.83;;;41.17;;
16994;SDS011;8614;48.522;9.206;2024-01-11T13:31:11;55.03;;;40.00;;
16994;SDS011;8614;48.522;9.206;2024-01-11T13:33:38;53.73;;;38.97;;
16994;SDS011;8614;48.522;9.206;2024-01-11T13:36:05;53.33;;;39.63;;
16994;SDS011;8614;48.522;9.206;2024-01-11T13:38:33;55.10;;;40.43;;
16994;SDS011;8614;48.522;9.206;2024-01-11T13:41:00;46.27;;;36.80;;
16994;SDS011;8614;48.522;9.206;2024-01-11T13:43:27;50.70;;;37.33;;
16994;SDS011;8614;48.522;9.206;2024-01-11T13:45:55;49.03;;;37.47;;
16994;SDS011;8614;48.522;9.206;2024-01-11T13:48:22;54.03;;;40.17;;
16994;SDS011;8614;48.522;9.206;2024-01-11T13:50:49;54.63;;;38.67;;
16994;SDS011;8614;48.522;9.206;2024-01-11T13:53:16;60.30;;;42.03;;
16994;SDS011;8614;48.522;9.206;2024-01-11T13:55:43;55.20;;;39.93;;
16994;SDS011;8614;48.522;9.206;2024-01-11T13:58:10;52.60;;;39.63;;
16994;SDS011;8614;48.522;9.206;2024-01-11T14:00:37;49.70;;;37.60;;
16994;SDS011;8614;48.522;9.206;2024-01-11T14:03:06;46.30;;;36.87;;
16994;SDS011;8614;48.522;9.206;2024-01-11T14:05:33;49.43;;;37.57;;
16994;SDS011;8614;48.522;9.206;2024-01-11T14:08:00;50.10;;;38.30;;
16994;SDS011;8614;48.522;9.206;2024-01-11T14:10:30;51.73;;;39.00;;
16994;SDS011;8614;48.522;9.206;2024-01-11T14:12:59;50.73;;;37.83;;
16994;SDS011;8614;48.522;9.206;2024-01-11T14:15:26;50.67;;;37.23;;
16994;SDS011;8614;48.522;9.206;2024-01-11T14:17:53;48.70;;;36.47;;
16994;SDS011;8614;48.522;9.206;2024-01-11T14:20:22;54.07;;;41.37;;
16994;SDS011;8614;48.522;9.206;2024-01-11T14:22:49;53.73;;;40.57;;
16994;SDS011;8614;48.522;9.206;2024-01-11T14:25:17;53.23;;;39.40;;
16994;SDS011;8614;48.522;9.206;2024-01-11T14:27:45;48.23;;;37.50;;
16994;SDS011;8614;48.522;9.206;2024-01-11T14:30:13;61.47;;;44.53;;
16994;SDS011;8614;48.522;9.206;2024-01-11T14:32:40;52.07;;;41.00;;
16994;SDS011;8614;48.522;9.206;2024-01-11T14:35:07;53.07;;;40.97;;